sensor_id;sensor_type;location;lat;lon;timestamp;P1;durP1;ratioP1;P2;durP2;ratioP2
2720;SDS011;1368;49.484;11.112;2023-06-10T00:00:54;12.27;;;10.67;;
2720;SDS011;1368;49.484;11.112;2023-06-10T00:03:20;11.37;;;10.17;;
2720;SDS011;1368;49.484;11.112;2023-06-10T00:05:48;15.70;;;12.03;;
2720;SDS011;1368;49.484;11.112;2023-06-10T00:08:14;15.40;;;11.70;;
2720;SDS011;1368;49.484;11.112;2023-06-10T00:10:40;12.30;;;11.07;;
2720;SDS011;1368;49.484;11.112;2023-06-10T00:13:06;12.30;;;11.00;;
2720;SDS011;1368;49.484;11.112;2023-06-10T00:15:36;21.20;;;13.27;;
2720;SDS011;1368;49.484;11.112;2023-06-10T00:18:02;13.70;;;11.77;;
2720;SDS011;1368;49.484;11.112;2023-06-10T00:20:29;13.53;;;11.67;;
2720;SDS011;1368;49.484;11.112;2023-06-10T00:22:55;12.50;;;11.20;;
2720;SDS011;1368;49.484;11.112;2023-06-10T00:25:22;14.63;;;11.43;;
2720;SDS011;1368;49.484;11.112;2023-06-10T00:27:47;15.03;;;12.93;;
2720;SDS011;1368;49.484;11.112;2023-06-10T00:30:13;14.17;;;12.00;;
2720;SDS011;1368;49.484;11.112;2023-06-10T00:32:39;12.33;;;10.70;;
2720;SDS011;1368;49.484;11.112;2023-06-10T00:35:05;13.43;;;11.00;;
2720;SDS011;1368;49.484;11.112;2023-06-10T00:37:31;12.23;;;10.93;;
2720;SDS011;1368;49.484;11.112;2023-06-10T00:39:57;14.80;;;11.77;;
2720;SDS011;1368;49.484;11.112;2023-06-10T00:42:23;13.10;;;11.80;;
2720;SDS011;1368;49.484;11.112;2023-06-10T00:44:50;14.47;;;11.93;;
2720;SDS011;1368;49.484;11.112;2023-06-10T00:47:16;12.43;;;11.10;;
2720;SDS011;1368;49.484;11.112;2023-06-10T00:49:42;13.07;;;11.03;;
2720;SDS011;1368;49.484;11.112;2023-06-10T00:52:08;14.73;;;11.03;;
2720;SDS011;1368;49.484;11.112;2023-06-10T00:54:35;11.80;;;10.53;;
2720;SDS011;1368;49.484;11.112;2023-06-10T00:57:01;13.40;;;12.00;;
2720;SDS011;1368;49.484;11.112;2023-06-10T00:59:28;15.00;;;13.40;;
2720;SDS011;1368;49.484;11.112;2023-06-10T01:01:54;14.57;;;12.10;;
2720;SDS011;1368;49.484;11.112;2023-06-10T01:04:21;13.90;;;12.40;;
2720;SDS011;1368;49.484;11.112;2023-06-10T01:06:54;14.70;;;13.20;;
2720;SDS011;1368;49.484;11.112;2023-06-10T01:09:35;14.30;;;12.80;;
2720;SDS011;1368;49.484;11.112;2023-06-10T01:14:37;14.30;;;12.87;;
2720;SDS011;1368;49.484;11.112;2023-06-10T01:17:10;15.43;;;12.80;;
2720;SDS011;1368;49.484;11.112;2023-06-10T01:19:36;15.13;;;12.60;;
2720;SDS011;1368;49.484;11.112;2023-06-10T01:22:02;16.90;;;13.13;;
2720;SDS011;1368;49.484;11.112;2023-06-10T01:24:28;13.27;;;11.80;;
2720;SDS011;1368;49.484;11.112;2023-06-10T01:26:57;14.57;;;11.77;;
2720;SDS011;1368;49.484;11.112;2023-06-10T01:29:28;14.23;;;12.70;;
2720;SDS011;1368;49.484;11.112;2023-06-10T01:32:08;14.63;;;13.10;;
2720;SDS011;1368;49.484;11.112;2023-06-10T01:35:03;14.27;;;12.03;;
2720;SDS011;1368;49.484;11.112;2023-06-10T01:37:31;15.67;;;12.17;;
2720;SDS011;1368;49.484;11.112;2023-06-10T01:40:00;13.97;;;12.50;;
2720;SDS011;1368;49.484;11.112;2023-06-10T01:42:31;13.60;;;12.20;;
2720;SDS011;1368;49.484;11.112;2023-06-10T01:44:57;16.77;;;13.03;;
2720;SDS011;1368;49.484;11.112;2023-06-10T01:47:23;14.40;;;12.90;;
2720;SDS011;1368;49.484;11.112;2023-06-10T01:49:48;13.90;;;12.50;;
2720;SDS011;1368;49.484;11.112;2023-06-10T01:52:14;14.07;;;12.40;;
2720;SDS011;1368;49.484;11.112;2023-06-10T01:54:40;17.43;;;13.93;;
2720;SDS011;1368;49.484;11.112;2023-06-10T01:57:05;15.03;;;12.70;;
2720;SDS011;1368;49.484;11.112;2023-06-10T01:59:31;14.60;;;13.10;;
2720;SDS011;1368;49.484;11.112;2023-06-10T02:01:57;14.20;;;11.97;;
2720;SDS011;1368;49.484;11.112;2023-06-10T02:04:22;16.20;;;13.23;;
2720;SDS011;1368;49.484;11.112;2023-06-10T02:06:48;14.83;;;13.03;;
2720;SDS011;1368;49.484;11.112;2023-06-10T02:09:13;15.53;;;13.93;;
2720;SDS011;1368;49.484;11.112;2023-06-10T02:11:39;15.67;;;13.10;;
2720;SDS011;1368;49.484;11.112;2023-06-10T02:14:05;18.43;;;13.77;;
2720;SDS011;1368;49.484;11.112;2023-06-10T02:16:30;14.10;;;12.57;;
2720;SDS011;1368;49.484;11.112;2023-06-10T02:18:56;14.67;;;11.37;;
2720;SDS011;1368;49.484;11.112;2023-06-10T02:21:22;14.53;;;13.00;;
2720;SDS011;1368;49.484;11.112;2023-06-10T02:23:48;17.83;;;13.30;;
2720;SDS011;1368;49.484;11.112;2023-06-10T02:26:13;16.30;;;12.70;;
2720;SDS011;1368;49.484;11.112;2023-06-10T02:28:43;19.90;;;13.73;;
2720;SDS011;1368;49.484;11.112;2023-06-10T02:31:09;16.97;;;13.43;;
2720;SDS011;1368;49.484;11.112;2023-06-10T02:33:34;15.87;;;14.03;;
2720;SDS011;1368;49.484;11.112;2023-06-10T02:36:00;14.90;;;12.80;;
2720;SDS011;1368;49.484;11.112;2023-06-10T02:38:26;16.33;;;14.63;;
2720;SDS011;1368;49.484;11.112;2023-06-10T02:40:51;19.20;;;14.00;;
2720;SDS011;1368;49.484;11.112;2023-06-10T02:43:17;16.80;;;14.53;;
2720;SDS011;1368;49.484;11.112;2023-06-10T02:45:43;16.20;;;12.90;;
2720;SDS011;1368;49.484;11.112;2023-06-10T02:48:08;13.73;;;12.33;;
2720;SDS011;1368;49.484;11.112;2023-06-10T02:50:34;14.13;;;12.60;;
2720;SDS011;1368;49.484;11.112;2023-06-10T02:52:59;15.60;;;13.67;;
2720;SDS011;1368;49.484;11.112;2023-06-10T02:55:25;15.17;;;12.73;;
2720;SDS011;1368;49.484;11.112;2023-06-10T02:57:51;16.33;;;13.97;;
2720;SDS011;1368;49.484;11.112;2023-06-10T03:00:19;16.27;;;14.47;;
2720;SDS011;1368;49.484;11.112;2023-06-10T03:02:45;14.33;;;12.87;;
2720;SDS011;1368;49.484;11.112;2023-06-10T03:05:11;18.17;;;13.67;;
2720;SDS011;1368;49.484;11.112;2023-06-10T03:07:38;17.40;;;13.93;;
2720;SDS011;1368;49.484;11.112;2023-06-10T03:10:04;14.63;;;13.03;;
2720;SDS011;1368;49.484;11.112;2023-06-10T03:12:30;14.73;;;13.20;;
2720;SDS011;1368;49.484;11.112;2023-06-10T03:14:56;17.03;;;14.07;;
2720;SDS011;1368;49.484;11.112;2023-06-10T03:17:22;16.23;;;13.73;;
2720;SDS011;1368;49.484;11.112;2023-06-10T03:19:47;15.83;;;13.50;;
2720;SDS011;1368;49.484;11.112;2023-06-10T03:22:13;15.00;;;13.00;;
2720;SDS011;1368;49.484;11.112;2023-06-10T03:24:40;15.20;;;13.20;;
2720;SDS011;1368;49.484;11.112;2023-06-10T03:27:12;16.00;;;14.30;;
2720;SDS011;1368;49.484;11.112;2023-06-10T03:29:38;14.80;;;13.27;;
2720;SDS011;1368;49.484;11.112;2023-06-10T03:32:04;19.03;;;14.00;;
2720;SDS011;1368;49.484;11.112;2023-06-10T03:34:30;13.93;;;12.50;;
2720;SDS011;1368;49.484;11.112;2023-06-10T03:36:56;17.97;;;13.20;;
2720;SDS011;1368;49.484;11.112;2023-06-10T03:39:22;13.17;;;11.80;;
2720;SDS011;1368;49.484;11.112;2023-06-10T03:41:48;17.03;;;12.90;;
2720;SDS011;1368;49.484;11.112;2023-06-10T03:44:14;13.03;;;11.67;;
2720;SDS011;1368;49.484;11.112;2023-06-10T03:46:40;13.17;;;11.83;;
2720;SDS011;1368;49.484;11.112;2023-06-10T03:49:06;13.03;;;11.73;;
2720;SDS011;1368;49.484;11.112;2023-06-10T03:51:31;14.00;;;12.27;;
2720;SDS011;1368;49.484;11.112;2023-06-10T03:53:57;16.30;;;12.10;;
2720;SDS011;1368;49.484;11.112;2023-06-10T03:56:23;15.93;;;11.60;;
2720;SDS011;1368;49.484;11.112;2023-06-10T03:58:48;14.30;;;12.23;;
2720;SDS011;1368;49.484;11.112;2023-06-10T04:01:14;12.00;;;10.73;;
2720;SDS011;1368;49.484;11.112;2023-06-10T04:03:40;12.67;;;11.33;;
2720;SDS011;1368;49.484;11.112;2023-06-10T04:06:06;12.30;;;9.67;;
2720;SDS011;1368;49.484;11.112;2023-06-10T04:08:32;11.90;;;9.97;;
2720;SDS011;1368;49.484;11.112;2023-06-10T04:10:58;10.40;;;9.40;;
2720;SDS011;1368;49.484;11.112;2023-06-10T04:13:24;10.93;;;9.80;;
2720;SDS011;1368;49.484;11.112;2023-06-10T04:15:50;11.90;;;9.40;;
2720;SDS011;1368;49.484;11.112;2023-06-10T04:18:16;12.27;;;9.40;;
2720;SDS011;1368;49.484;11.112;2023-06-10T04:20:41;14.43;;;10.30;;
2720;SDS011;1368;49.484;11.112;2023-06-10T04:23:07;10.60;;;9.50;;
2720;SDS011;1368;49.484;11.112;2023-06-10T04:25:33;10.17;;;9.17;;
2720;SDS011;1368;49.484;11.112;2023-06-10T04:27:58;12.27;;;11.07;;
2720;SDS011;1368;49.484;11.112;2023-06-10T04:30:24;10.60;;;9.60;;
2720;SDS011;1368;49.484;11.112;2023-06-10T04:32:50;11.10;;;10.00;;
2720;SDS011;1368;49.484;11.112;2023-06-10T04:35:15;10.90;;;9.80;;
2720;SDS011;1368;49.484;11.112;2023-06-10T04:37:41;10.70;;;9.60;;
2720;SDS011;1368;49.484;11.112;2023-06-10T04:40:08;11.83;;;9.90;;
2720;SDS011;1368;49.484;11.112;2023-06-10T04:42:34;10.07;;;9.07;;
2720;SDS011;1368;49.484;11.112;2023-06-10T04:45:00;10.60;;;9.60;;
2720;SDS011;1368;49.484;11.112;2023-06-10T04:47:25;10.80;;;9.80;;
2720;SDS011;1368;49.484;11.112;2023-06-10T04:49:51;11.37;;;10.30;;
2720;SDS011;1368;49.484;11.112;2023-06-10T04:52:17;11.90;;;10.60;;
2720;SDS011;1368;49.484;11.112;2023-06-10T04:54:43;10.03;;;9.13;;
2720;SDS011;1368;49.484;11.112;2023-06-10T04:57:08;10.37;;;9.27;;
2720;SDS011;1368;49.484;11.112;2023-06-10T04:59:36;17.73;;;10.50;;
2720;SDS011;1368;49.484;11.112;2023-06-10T05:02:03;11.07;;;9.97;;
2720;SDS011;1368;49.484;11.112;2023-06-10T05:04:29;10.47;;;9.47;;
2720;SDS011;1368;49.484;11.112;2023-06-10T05:06:55;10.80;;;9.80;;
2720;SDS011;1368;49.484;11.112;2023-06-10T05:09:20;10.70;;;9.53;;
2720;SDS011;1368;49.484;11.112;2023-06-10T05:11:46;11.73;;;10.60;;
2720;SDS011;1368;49.484;11.112;2023-06-10T05:14:12;11.30;;;10.10;;
2720;SDS011;1368;49.484;11.112;2023-06-10T05:16:37;10.50;;;8.97;;
2720;SDS011;1368;49.484;11.112;2023-06-10T05:19:03;12.60;;;9.20;;
2720;SDS011;1368;49.484;11.112;2023-06-10T05:21:29;10.93;;;9.83;;
2720;SDS011;1368;49.484;11.112;2023-06-10T05:23:55;10.57;;;9.57;;
2720;SDS011;1368;49.484;11.112;2023-06-10T05:26:20;12.10;;;10.53;;
2720;SDS011;1368;49.484;11.112;2023-06-10T05:28:46;9.07;;;8.17;;
2720;SDS011;1368;49.484;11.112;2023-06-10T05:31:12;10.27;;;9.27;;
2720;SDS011;1368;49.484;11.112;2023-06-10T05:33:38;10.57;;;9.50;;
2720;SDS011;1368;49.484;11.112;2023-06-10T05:36:04;10.10;;;9.03;;
2720;SDS011;1368;49.484;11.112;2023-06-10T05:38:30;9.20;;;8.37;;
2720;SDS011;1368;49.484;11.112;2023-06-10T05:40:56;9.87;;;8.87;;
2720;SDS011;1368;49.484;11.112;2023-06-10T05:43:22;17.53;;;9.47;;
2720;SDS011;1368;49.484;11.112;2023-06-10T05:45:47;8.97;;;8.07;;
2720;SDS011;1368;49.484;11.112;2023-06-10T05:48:13;10.23;;;9.23;;
2720;SDS011;1368;49.484;11.112;2023-06-10T05:50:38;9.30;;;8.40;;
2720;SDS011;1368;49.484;11.112;2023-06-10T05:53:07;9.10;;;8.27;;
2720;SDS011;1368;49.484;11.112;2023-06-10T05:55:39;8.30;;;7.50;;
2720;SDS011;1368;49.484;11.112;2023-06-10T05:58:08;9.47;;;8.57;;
2720;SDS011;1368;49.484;11.112;2023-06-10T06:00:35;9.37;;;8.20;;
2720;SDS011;1368;49.484;11.112;2023-06-10T06:03:00;9.00;;;8.00;;
2720;SDS011;1368;49.484;11.112;2023-06-10T06:05:26;8.23;;;7.43;;
2720;SDS011;1368;49.484;11.112;2023-06-10T06:07:51;9.90;;;8.90;;
2720;SDS011;1368;49.484;11.112;2023-06-10T06:10:17;8.83;;;7.93;;
2720;SDS011;1368;49.484;11.112;2023-06-10T06:12:43;8.93;;;8.13;;
2720;SDS011;1368;49.484;11.112;2023-06-10T06:15:10;10.43;;;8.47;;
2720;SDS011;1368;49.484;11.112;2023-06-10T06:17:36;8.03;;;7.23;;
2720;SDS011;1368;49.484;11.112;2023-06-10T06:20:02;8.47;;;7.67;;
2720;SDS011;1368;49.484;11.112;2023-06-10T06:22:28;7.73;;;7.03;;
2720;SDS011;1368;49.484;11.112;2023-06-10T06:24:54;8.53;;;7.40;;
2720;SDS011;1368;49.484;11.112;2023-06-10T06:27:19;9.67;;;8.47;;
2720;SDS011;1368;49.484;11.112;2023-06-10T06:29:46;8.30;;;7.50;;
2720;SDS011;1368;49.484;11.112;2023-06-10T06:32:11;8.13;;;7.33;;
2720;SDS011;1368;49.484;11.112;2023-06-10T06:34:37;9.33;;;7.50;;
2720;SDS011;1368;49.484;11.112;2023-06-10T06:37:03;7.90;;;7.10;;
2720;SDS011;1368;49.484;11.112;2023-06-10T06:39:29;12.20;;;8.37;;
2720;SDS011;1368;49.484;11.112;2023-06-10T06:41:54;7.93;;;7.20;;
2720;SDS011;1368;49.484;11.112;2023-06-10T06:44:20;8.03;;;7.23;;
2720;SDS011;1368;49.484;11.112;2023-06-10T06:46:45;7.93;;;6.50;;
2720;SDS011;1368;49.484;11.112;2023-06-10T06:49:11;9.77;;;7.90;;
2720;SDS011;1368;49.484;11.112;2023-06-10T06:51:36;8.00;;;7.20;;
2720;SDS011;1368;49.484;11.112;2023-06-10T06:54:02;8.10;;;7.40;;
2720;SDS011;1368;49.484;11.112;2023-06-10T06:56:28;7.87;;;7.17;;
2720;SDS011;1368;49.484;11.112;2023-06-10T06:58:53;10.40;;;7.33;;
2720;SDS011;1368;49.484;11.112;2023-06-10T07:01:19;8.13;;;7.33;;
2720;SDS011;1368;49.484;11.112;2023-06-10T07:03:45;9.03;;;7.80;;
2720;SDS011;1368;49.484;11.112;2023-06-10T07:06:11;8.50;;;7.70;;
2720;SDS011;1368;49.484;11.112;2023-06-10T07:08:38;8.80;;;8.00;;
2720;SDS011;1368;49.484;11.112;2023-06-10T07:11:03;8.43;;;7.63;;
2720;SDS011;1368;49.484;11.112;2023-06-10T07:13:29;8.17;;;7.47;;
2720;SDS011;1368;49.484;11.112;2023-06-10T07:15:54;8.00;;;7.20;;
2720;SDS011;1368;49.484;11.112;2023-06-10T07:18:20;7.57;;;6.87;;
2720;SDS011;1368;49.484;11.112;2023-06-10T07:20:45;8.10;;;7.30;;
2720;SDS011;1368;49.484;11.112;2023-06-10T07:23:11;7.03;;;6.30;;
2720;SDS011;1368;49.484;11.112;2023-06-10T07:25:36;7.93;;;6.77;;
2720;SDS011;1368;49.484;11.112;2023-06-10T07:28:02;7.77;;;7.00;;
2720;SDS011;1368;49.484;11.112;2023-06-10T07:30:28;8.00;;;7.30;;
2720;SDS011;1368;49.484;11.112;2023-06-10T07:32:53;8.53;;;7.13;;
2720;SDS011;1368;49.484;11.112;2023-06-10T07:35:19;8.27;;;7.47;;
2720;SDS011;1368;49.484;11.112;2023-06-10T07:37:45;8.13;;;7.00;;
2720;SDS011;1368;49.484;11.112;2023-06-10T07:40:10;7.07;;;6.37;;
2720;SDS011;1368;49.484;11.112;2023-06-10T07:42:36;7.83;;;7.00;;
2720;SDS011;1368;49.484;11.112;2023-06-10T07:45:02;7.80;;;7.10;;
2720;SDS011;1368;49.484;11.112;2023-06-10T07:47:29;7.77;;;7.07;;
2720;SDS011;1368;49.484;11.112;2023-06-10T07:49:55;9.30;;;6.50;;
2720;SDS011;1368;49.484;11.112;2023-06-10T07:52:20;7.07;;;6.30;;
2720;SDS011;1368;49.484;11.112;2023-06-10T07:54:46;10.57;;;7.20;;
2720;SDS011;1368;49.484;11.112;2023-06-10T07:57:12;6.90;;;6.20;;
2720;SDS011;1368;49.484;11.112;2023-06-10T07:59:37;7.37;;;6.77;;
2720;SDS011;1368;49.484;11.112;2023-06-10T08:02:03;6.93;;;6.33;;
2720;SDS011;1368;49.484;11.112;2023-06-10T08:04:29;7.10;;;6.03;;
2720;SDS011;1368;49.484;11.112;2023-06-10T08:06:55;7.87;;;7.17;;
2720;SDS011;1368;49.484;11.112;2023-06-10T08:09:21;6.43;;;5.67;;
2720;SDS011;1368;49.484;11.112;2023-06-10T08:11:48;6.80;;;6.20;;
2720;SDS011;1368;49.484;11.112;2023-06-10T08:14:14;7.60;;;6.90;;
2720;SDS011;1368;49.484;11.112;2023-06-10T08:16:43;7.70;;;6.47;;
2720;SDS011;1368;49.484;11.112;2023-06-10T08:19:08;7.53;;;6.73;;
2720;SDS011;1368;49.484;11.112;2023-06-10T08:21:34;7.67;;;6.53;;
2720;SDS011;1368;49.484;11.112;2023-06-10T08:24:02;8.20;;;6.17;;
2720;SDS011;1368;49.484;11.112;2023-06-10T08:26:28;9.40;;;6.93;;
2720;SDS011;1368;49.484;11.112;2023-06-10T08:28:53;7.80;;;6.23;;
2720;SDS011;1368;49.484;11.112;2023-06-10T08:31:20;6.00;;;5.20;;
2720;SDS011;1368;49.484;11.112;2023-06-10T08:33:46;6.20;;;5.60;;
2720;SDS011;1368;49.484;11.112;2023-06-10T08:36:11;5.43;;;4.93;;
2720;SDS011;1368;49.484;11.112;2023-06-10T08:38:37;6.03;;;5.23;;
2720;SDS011;1368;49.484;11.112;2023-06-10T08:41:03;7.73;;;5.60;;
2720;SDS011;1368;49.484;11.112;2023-06-10T08:43:48;5.57;;;4.97;;
2720;SDS011;1368;49.484;11.112;2023-06-10T08:46:24;6.93;;;4.87;;
2720;SDS011;1368;49.484;11.112;2023-06-10T08:48:49;5.70;;;5.13;;
2720;SDS011;1368;49.484;11.112;2023-06-10T08:51:20;5.80;;;5.20;;
2720;SDS011;1368;49.484;11.112;2023-06-10T08:53:50;5.70;;;4.83;;
2720;SDS011;1368;49.484;11.112;2023-06-10T08:56:24;5.03;;;4.63;;
2720;SDS011;1368;49.484;11.112;2023-06-10T08:58:51;5.30;;;4.80;;
2720;SDS011;1368;49.484;11.112;2023-06-10T09:01:18;6.80;;;5.03;;
2720;SDS011;1368;49.484;11.112;2023-06-10T09:03:44;5.57;;;5.07;;
2720;SDS011;1368;49.484;11.112;2023-06-10T09:06:10;5.80;;;5.27;;
2720;SDS011;1368;49.484;11.112;2023-06-10T09:08:35;5.63;;;5.07;;
2720;SDS011;1368;49.484;11.112;2023-06-10T09:11:01;5.43;;;4.93;;
2720;SDS011;1368;49.484;11.112;2023-06-10T09:13:27;7.10;;;5.13;;
2720;SDS011;1368;49.484;11.112;2023-06-10T09:15:53;5.60;;;5.10;;
2720;SDS011;1368;49.484;11.112;2023-06-10T09:18:21;6.10;;;5.50;;
2720;SDS011;1368;49.484;11.112;2023-06-10T09:20:47;6.00;;;5.27;;
2720;SDS011;1368;49.484;11.112;2023-06-10T09:23:12;7.03;;;6.33;;
2720;SDS011;1368;49.484;11.112;2023-06-10T09:25:39;6.67;;;5.97;;
2720;SDS011;1368;49.484;11.112;2023-06-10T09:28:09;6.83;;;5.80;;
2720;SDS011;1368;49.484;11.112;2023-06-10T09:30:38;9.17;;;5.93;;
2720;SDS011;1368;49.484;11.112;2023-06-10T09:33:09;7.73;;;5.53;;
2720;SDS011;1368;49.484;11.112;2023-06-10T09:35:37;5.47;;;4.97;;
2720;SDS011;1368;49.484;11.112;2023-06-10T09:38:11;5.90;;;5.40;;
2720;SDS011;1368;49.484;11.112;2023-06-10T09:40:51;7.00;;;5.60;;
2720;SDS011;1368;49.484;11.112;2023-06-10T09:43:18;6.63;;;6.00;;
2720;SDS011;1368;49.484;11.112;2023-06-10T09:45:44;5.70;;;5.17;;
2720;SDS011;1368;49.484;11.112;2023-06-10T09:48:12;5.63;;;5.13;;
2720;SDS011;1368;49.484;11.112;2023-06-10T09:50:44;6.77;;;6.07;;
2720;SDS011;1368;49.484;11.112;2023-06-10T09:53:11;6.43;;;5.83;;
2720;SDS011;1368;49.484;11.112;2023-06-10T09:55:37;7.43;;;6.07;;
2720;SDS011;1368;49.484;11.112;2023-06-10T09:58:04;7.47;;;6.40;;
2720;SDS011;1368;49.484;11.112;2023-06-10T10:00:31;6.47;;;5.83;;
2720;SDS011;1368;49.484;11.112;2023-06-10T10:02:58;9.87;;;6.10;;
2720;SDS011;1368;49.484;11.112;2023-06-10T10:05:24;6.37;;;5.27;;
2720;SDS011;1368;49.484;11.112;2023-06-10T10:07:50;6.20;;;5.63;;
2720;SDS011;1368;49.484;11.112;2023-06-10T10:10:17;6.60;;;5.90;;
2720;SDS011;1368;49.484;11.112;2023-06-10T10:12:45;6.30;;;5.70;;
2720;SDS011;1368;49.484;11.112;2023-06-10T10:15:12;6.60;;;5.77;;
2720;SDS011;1368;49.484;11.112;2023-06-10T10:20:27;7.20;;;5.90;;
2720;SDS011;1368;49.484;11.112;2023-06-10T10:22:59;4.80;;;4.30;;
2720;SDS011;1368;49.484;11.112;2023-06-10T10:25:32;8.77;;;5.47;;
2720;SDS011;1368;49.484;11.112;2023-06-10T10:28:10;5.57;;;4.90;;
2720;SDS011;1368;49.484;11.112;2023-06-10T10:30:39;5.70;;;5.03;;
2720;SDS011;1368;49.484;11.112;2023-06-10T10:33:17;4.80;;;4.30;;
2720;SDS011;1368;49.484;11.112;2023-06-10T10:35:45;4.80;;;4.27;;
2720;SDS011;1368;49.484;11.112;2023-06-10T10:38:11;5.50;;;5.00;;
2720;SDS011;1368;49.484;11.112;2023-06-10T10:40:37;6.20;;;5.60;;
2720;SDS011;1368;49.484;11.112;2023-06-10T10:43:03;5.70;;;5.20;;
2720;SDS011;1368;49.484;11.112;2023-06-10T10:45:30;7.53;;;6.27;;
2720;SDS011;1368;49.484;11.112;2023-06-10T10:47:55;9.60;;;6.33;;
2720;SDS011;1368;49.484;11.112;2023-06-10T10:50:22;9.03;;;7.60;;
2720;SDS011;1368;49.484;11.112;2023-06-10T10:52:55;6.70;;;5.97;;
2720;SDS011;1368;49.484;11.112;2023-06-10T10:55:24;6.70;;;6.10;;
2720;SDS011;1368;49.484;11.112;2023-06-10T10:57:54;8.00;;;5.80;;
2720;SDS011;1368;49.484;11.112;2023-06-10T11:00:25;7.90;;;6.70;;
2720;SDS011;1368;49.484;11.112;2023-06-10T11:02:58;7.70;;;6.10;;
2720;SDS011;1368;49.484;11.112;2023-06-10T11:05:33;6.97;;;4.60;;
2720;SDS011;1368;49.484;11.112;2023-06-10T11:08:05;6.70;;;5.40;;
2720;SDS011;1368;49.484;11.112;2023-06-10T11:10:35;5.27;;;4.77;;
2720;SDS011;1368;49.484;11.112;2023-06-10T11:13:05;5.93;;;4.93;;
2720;SDS011;1368;49.484;11.112;2023-06-10T11:15:33;6.50;;;5.33;;
2720;SDS011;1368;49.484;11.112;2023-06-10T11:28:40;6.90;;;5.50;;
2720;SDS011;1368;49.484;11.112;2023-06-10T11:33:52;6.50;;;5.90;;
2720;SDS011;1368;49.484;11.112;2023-06-10T11:36:19;9.70;;;6.30;;
2720;SDS011;1368;49.484;11.112;2023-06-10T11:38:45;5.97;;;5.13;;
2720;SDS011;1368;49.484;11.112;2023-06-10T11:41:11;6.23;;;5.63;;
2720;SDS011;1368;49.484;11.112;2023-06-10T11:43:44;6.20;;;5.60;;
2720;SDS011;1368;49.484;11.112;2023-06-10T11:46:10;5.83;;;5.23;;
2720;SDS011;1368;49.484;11.112;2023-06-10T11:48:36;7.50;;;5.73;;
2720;SDS011;1368;49.484;11.112;2023-06-10T11:51:08;5.27;;;4.77;;
2720;SDS011;1368;49.484;11.112;2023-06-10T11:53:34;7.00;;;5.80;;
2720;SDS011;1368;49.484;11.112;2023-06-10T11:56:00;6.20;;;5.60;;
2720;SDS011;1368;49.484;11.112;2023-06-10T11:58:25;6.00;;;5.40;;
2720;SDS011;1368;49.484;11.112;2023-06-10T12:00:52;7.03;;;6.37;;
2720;SDS011;1368;49.484;11.112;2023-06-10T12:03:20;6.20;;;5.70;;
2720;SDS011;1368;49.484;11.112;2023-06-10T12:05:57;6.20;;;5.60;;
2720;SDS011;1368;49.484;11.112;2023-06-10T12:08:23;5.77;;;4.40;;
2720;SDS011;1368;49.484;11.112;2023-06-10T12:10:49;5.17;;;4.67;;
2720;SDS011;1368;49.484;11.112;2023-06-10T12:13:15;5.10;;;4.60;;
2720;SDS011;1368;49.484;11.112;2023-06-10T12:15:42;6.77;;;5.67;;
2720;SDS011;1368;49.484;11.112;2023-06-10T12:18:11;5.90;;;5.13;;
2720;SDS011;1368;49.484;11.112;2023-06-10T12:20:48;6.80;;;5.53;;
2720;SDS011;1368;49.484;11.112;2023-06-10T12:23:15;5.23;;;4.73;;
2720;SDS011;1368;49.484;11.112;2023-06-10T12:25:51;6.03;;;4.70;;
2720;SDS011;1368;49.484;11.112;2023-06-10T12:28:24;5.17;;;4.67;;
2720;SDS011;1368;49.484;11.112;2023-06-10T12:30:51;5.17;;;4.67;;
2720;SDS011;1368;49.484;11.112;2023-06-10T12:33:30;4.80;;;4.30;;
2720;SDS011;1368;49.484;11.112;2023-06-10T12:35:56;6.43;;;5.17;;
2720;SDS011;1368;49.484;11.112;2023-06-10T12:38:22;5.87;;;5.23;;
2720;SDS011;1368;49.484;11.112;2023-06-10T12:40:49;5.87;;;4.60;;
2720;SDS011;1368;49.484;11.112;2023-06-10T12:43:19;6.03;;;5.40;;
2720;SDS011;1368;49.484;11.112;2023-06-10T12:45:46;5.27;;;4.77;;
2720;SDS011;1368;49.484;11.112;2023-06-10T12:50:42;6.80;;;4.87;;
2720;SDS011;1368;49.484;11.112;2023-06-10T12:53:09;7.93;;;5.40;;
2720;SDS011;1368;49.484;11.112;2023-06-10T12:55:36;5.60;;;5.10;;
2720;SDS011;1368;49.484;11.112;2023-06-10T12:58:03;6.37;;;5.77;;
2720;SDS011;1368;49.484;11.112;2023-06-10T13:00:28;5.70;;;5.00;;
2720;SDS011;1368;49.484;11.112;2023-06-10T13:02:59;5.53;;;4.67;;
2720;SDS011;1368;49.484;11.112;2023-06-10T13:05:26;5.60;;;4.67;;
2720;SDS011;1368;49.484;11.112;2023-06-10T13:07:51;6.30;;;4.30;;
2720;SDS011;1368;49.484;11.112;2023-06-10T13:10:17;5.70;;;4.93;;
2720;SDS011;1368;49.484;11.112;2023-06-10T13:12:43;7.53;;;4.80;;
2720;SDS011;1368;49.484;11.112;2023-06-10T13:15:09;5.07;;;4.47;;
2720;SDS011;1368;49.484;11.112;2023-06-10T13:17:35;6.57;;;4.30;;
2720;SDS011;1368;49.484;11.112;2023-06-10T13:20:04;5.93;;;4.03;;
2720;SDS011;1368;49.484;11.112;2023-06-10T13:22:31;7.83;;;4.03;;
2720;SDS011;1368;49.484;11.112;2023-06-10T13:25:07;5.90;;;4.27;;
2720;SDS011;1368;49.484;11.112;2023-06-10T13:27:33;8.60;;;4.43;;
2720;SDS011;1368;49.484;11.112;2023-06-10T13:29:59;5.27;;;4.70;;
2720;SDS011;1368;49.484;11.112;2023-06-10T13:32:25;5.60;;;4.40;;
2720;SDS011;1368;49.484;11.112;2023-06-10T13:34:50;4.87;;;4.17;;
2720;SDS011;1368;49.484;11.112;2023-06-10T13:37:16;4.63;;;4.10;;
2720;SDS011;1368;49.484;11.112;2023-06-10T13:39:43;5.00;;;4.50;;
2720;SDS011;1368;49.484;11.112;2023-06-10T13:42:08;5.10;;;3.97;;
2720;SDS011;1368;49.484;11.112;2023-06-10T13:44:34;6.63;;;4.87;;
2720;SDS011;1368;49.484;11.112;2023-06-10T13:47:01;4.63;;;4.10;;
2720;SDS011;1368;49.484;11.112;2023-06-10T13:49:27;8.70;;;5.50;;
2720;SDS011;1368;49.484;11.112;2023-06-10T13:51:53;4.10;;;3.70;;
2720;SDS011;1368;49.484;11.112;2023-06-10T13:54:19;4.43;;;3.90;;
2720;SDS011;1368;49.484;11.112;2023-06-10T13:56:44;10.27;;;4.40;;
2720;SDS011;1368;49.484;11.112;2023-06-10T13:59:10;13.20;;;4.30;;
2720;SDS011;1368;49.484;11.112;2023-06-10T14:01:36;4.37;;;3.70;;
2720;SDS011;1368;49.484;11.112;2023-06-10T14:04:02;6.20;;;4.43;;
2720;SDS011;1368;49.484;11.112;2023-06-10T14:06:28;7.90;;;7.00;;
2720;SDS011;1368;49.484;11.112;2023-06-10T14:08:53;4.93;;;3.87;;
2720;SDS011;1368;49.484;11.112;2023-06-10T14:11:22;6.53;;;5.00;;
2720;SDS011;1368;49.484;11.112;2023-06-10T14:13:47;5.97;;;4.00;;
2720;SDS011;1368;49.484;11.112;2023-06-10T14:16:13;4.57;;;4.17;;
2720;SDS011;1368;49.484;11.112;2023-06-10T14:18:38;3.93;;;3.40;;
2720;SDS011;1368;49.484;11.112;2023-06-10T14:21:04;7.13;;;4.33;;
2720;SDS011;1368;49.484;11.112;2023-06-10T14:23:30;4.53;;;4.13;;
2720;SDS011;1368;49.484;11.112;2023-06-10T14:25:55;4.60;;;3.93;;
2720;SDS011;1368;49.484;11.112;2023-06-10T14:28:21;3.70;;;3.30;;
2720;SDS011;1368;49.484;11.112;2023-06-10T14:30:47;8.20;;;4.07;;
2720;SDS011;1368;49.484;11.112;2023-06-10T14:33:13;5.90;;;4.07;;
2720;SDS011;1368;49.484;11.112;2023-06-10T14:35:39;4.77;;;3.90;;
2720;SDS011;1368;49.484;11.112;2023-06-10T14:38:04;4.07;;;3.67;;
2720;SDS011;1368;49.484;11.112;2023-06-10T14:40:30;4.10;;;3.47;;
2720;SDS011;1368;49.484;11.112;2023-06-10T14:42:56;6.90;;;3.60;;
2720;SDS011;1368;49.484;11.112;2023-06-10T14:45:22;4.50;;;3.80;;
2720;SDS011;1368;49.484;11.112;2023-06-10T14:47:48;4.00;;;3.57;;
2720;SDS011;1368;49.484;11.112;2023-06-10T14:50:13;5.27;;;3.47;;
2720;SDS011;1368;49.484;11.112;2023-06-10T14:52:39;4.13;;;3.73;;
2720;SDS011;1368;49.484;11.112;2023-06-10T14:55:05;9.33;;;3.60;;
2720;SDS011;1368;49.484;11.112;2023-06-10T14:57:31;5.00;;;4.27;;
2720;SDS011;1368;49.484;11.112;2023-06-10T14:59:56;5.87;;;4.10;;
2720;SDS011;1368;49.484;11.112;2023-06-10T15:02:22;5.00;;;4.37;;
2720;SDS011;1368;49.484;11.112;2023-06-10T15:04:48;4.40;;;4.00;;
2720;SDS011;1368;49.484;11.112;2023-06-10T15:07:13;4.83;;;4.00;;
2720;SDS011;1368;49.484;11.112;2023-06-10T15:09:40;5.93;;;4.50;;
2720;SDS011;1368;49.484;11.112;2023-06-10T15:12:07;6.67;;;5.50;;